Pollocksville, North Carolina
Current Conditions -  °F | °C
As of 3:07 AM on Friday 19 Dec 2014 (Local Time) from KEWN Reporting Station
Haze Haze  
Wind Chill: 34°   Ceiling: Unl
Heat Index: 34°   Visibility: 3mi
Dew Point: 30°   Wind: 0mph
Humidity: 85%   Direction: NA
Pressure: 30.11"   Gusts: NA
Location:  35.01°N, 77.22°W
Report Text: KEWN 190807Z AUTO 00000KT 3SM BR CLR 01/M01 A3011 RMK AO2 T00111011
Loading
Personal Weather Stations






























Interactive Weather Map New forecast layout! Learn more

10-Day Weather Forecast

Advertisements
Track Severe Weather on mobile